Time;durP1;ratioP1;P1;durP2;ratioP2;P2;SDS_P1;SDS_P2;PMS_P1;PMS_P2;Temp;Humidity;BMP_temperature;BMP_pressure;BME280_temperature;BME280_humidity;BME280_pressure;Samples;Min_cycle;Max_cycle;Signal;HPM_P1;HPM_P2
2022/11/07 00:00:26;;;;;;;29.58;18.00;;;;;;;4.38;69.50;100485.63;4977344;28;20054;-70
2022/11/07 00:02:53;;;;;;;28.58;18.38;;;;;;;4.50;69.65;100495.25;4976492;28;20045;-71
2022/11/07 00:05:19;;;;;;;29.90;18.45;;;;;;;4.38;69.77;100498.91;4977334;28;20115;-68
2022/11/07 00:07:46;;;;;;;33.28;18.02;;;;;;;4.39;69.95;100492.66;4977073;28;20037;-69
2022/11/07 00:10:12;;;;;;;28.52;17.90;;;;;;;4.50;69.83;100492.59;4975798;28;20042;-71
2022/11/07 00:12:39;;;;;;;29.70;17.60;;;;;;;4.69;68.72;100483.94;4976253;28;20046;-71
2022/11/07 00:17:40;;;;;;;25.90;15.93;;;;;;;4.59;68.84;100491.84;5463121;23;20035;-71
2022/11/07 00:20:07;;;;;;;30.25;17.48;;;;;;;4.61;69.28;100484.56;4977497;28;20047;-68
2022/11/07 00:22:34;;;;;;;29.70;17.45;;;;;;;4.73;69.63;100477.41;4977050;28;20051;-70
2022/11/07 00:25:00;;;;;;;32.45;17.67;;;;;;;4.60;70.07;100477.59;5167292;23;20025;-70
2022/11/07 00:27:30;;;;;;;27.02;17.63;;;;;;;4.66;70.05;100470.91;6046536;23;20036;31
2022/11/07 00:29:57;;;;;;;27.92;17.50;;;;;;;4.63;70.65;100461.41;4917792;29;20071;-71
2022/11/07 00:37:47;;;;;;;27.02;17.30;;;;;;;4.73;70.72;100464.13;5238416;23;20244;-70
2022/11/07 00:40:14;;;;;;;42.08;18.58;;;;;;;4.75;70.00;100472.81;4996482;28;20033;-71
2022/11/07 00:42:40;;;;;;;26.40;16.58;;;;;;;4.63;71.00;100469.38;4994581;28;20090;-71
2022/11/07 00:45:08;;;;;;;26.70;17.00;;;;;;;4.64;70.70;100470.22;4995442;28;20061;-69
2022/11/07 00:47:34;;;;;;;27.60;17.20;;;;;;;4.67;70.96;100460.16;4996159;28;20106;-70
2022/11/07 00:52:36;;;;;;;26.58;16.98;;;;;;;4.54;71.99;100457.69;5057583;23;20062;-68
2022/11/07 00:55:03;;;;;;;27.48;17.08;;;;;;;4.64;71.38;100462.22;4996502;28;20090;-71
2022/11/07 00:57:29;;;;;;;33.80;17.40;;;;;;;4.80;70.41;100471.44;4995737;28;20057;-71
2022/11/07 00:59:56;;;;;;;26.40;16.00;;;;;;;4.76;70.39;100459.41;4996107;28;20030;-71
2022/11/07 01:02:22;;;;;;;30.45;17.42;;;;;;;4.79;70.30;100448.47;4995517;28;20049;-70
2022/11/07 01:10:07;;;;;;;28.13;16.00;;;;;;;4.62;71.09;100458.84;5291178;23;20088;-68
2022/11/07 01:12:35;;;;;;;27.40;16.30;;;;;;;4.57;71.00;100462.75;4995793;28;20035;-69
2022/11/07 01:15:02;;;;;;;24.92;16.35;;;;;;;4.68;70.88;100461.84;4996332;28;20655;-69
2022/11/07 01:17:29;;;;;;;23.48;16.17;;;;;;;4.74;70.45;100473.78;4994409;28;20038;-71
2022/11/07 01:19:55;;;;;;;26.35;16.10;;;;;;;4.84;70.17;100471.19;4995173;28;20047;-70
2022/11/07 01:22:22;;;;;;;24.13;14.40;;;;;;;4.88;70.12;100464.66;4998459;28;20066;-70
2022/11/07 01:24:48;;;;;;;24.40;14.32;;;;;;;4.78;70.46;100460.09;4990546;28;20049;-70
2022/11/07 01:27:15;;;;;;;25.73;16.55;;;;;;;4.85;70.23;100456.94;4998996;28;20040;-70
2022/11/07 01:29:41;;;;;;;22.85;14.40;;;;;;;4.73;70.74;100467.63;5057457;23;20026;-68
2022/11/07 01:32:08;;;;;;;22.58;14.02;;;;;;;4.75;70.58;100462.16;4999919;28;20028;-68
2022/11/07 01:34:34;;;;;;;22.00;14.30;;;;;;;4.80;70.45;100458.16;5000161;28;20035;-69
2022/11/07 01:37:01;;;;;;;23.40;14.60;;;;;;;4.91;70.19;100461.72;4999951;28;20106;-69
2022/11/07 01:39:27;;;;;;;26.13;14.65;;;;;;;4.87;70.43;100449.66;4999814;28;20054;-70
2022/11/07 01:41:54;;;;;;;24.92;15.07;;;;;;;4.91;70.21;100459.91;5035792;23;20050;-70
2022/11/07 01:44:20;;;;;;;25.48;14.82;;;;;;;4.66;70.99;100453.16;4999616;28;20038;-70
2022/11/07 01:46:47;;;;;;;23.23;14.35;;;;;;;4.86;70.81;100456.78;5765389;23;20616;-70
2022/11/07 01:49:28;;;;;;;23.95;14.23;;;;;;;5.15;69.74;100456.16;4998295;28;20106;-69
2022/11/07 01:52:03;;;;;;;22.45;13.23;;;;;;;5.15;69.48;100466.78;4997933;28;20026;-71
2022/11/07 01:54:37;;;;;;;18.83;13.70;;;;;;;5.32;68.97;100468.84;4996554;28;20030;-70
2022/11/07 01:57:08;;;;;;;19.95;12.85;;;;;;;5.14;69.31;100460.59;4994291;28;20057;-70
2022/11/07 01:59:36;;;;;;;22.60;13.63;;;;;;;4.92;70.12;100461.59;4996550;28;20027;-70
2022/11/07 02:02:03;;;;;;;19.17;12.73;;;;;;;5.10;69.42;100450.34;4998627;28;20057;-71
2022/11/07 02:04:30;;;;;;;19.33;12.75;;;;;;;4.76;70.16;100455.88;4997745;28;20051;-71
2022/11/07 02:07:22;;;;;;;20.95;12.88;;;;;;;5.04;69.78;100462.38;4997726;28;20055;-71
2022/11/07 02:09:51;;;;;;;19.80;12.77;;;;;;;4.99;70.37;100456.59;4996767;28;20022;-70
2022/11/07 02:12:18;;;;;;;22.48;12.57;;;;;;;5.17;69.66;100451.50;4997183;28;20057;-71
2022/11/07 02:14:45;;;;;;;23.70;12.77;;;;;;;5.10;69.75;100455.69;4997556;28;20027;-71
2022/11/07 02:17:12;;;;;;;19.08;12.63;;;;;;;5.27;69.23;100460.38;4997526;28;20045;-70
2022/11/07 02:19:47;;;;;;;20.10;12.43;;;;;;;5.30;69.15;100449.50;4997946;28;20554;-71
2022/11/07 02:22:47;;;;;;;18.65;12.57;;;;;;;5.33;69.34;100448.38;4997799;28;20050;-70
2022/11/07 02:25:17;;;;;;;20.42;12.90;;;;;;;5.32;69.38;100452.00;4997355;28;20033;-70
2022/11/07 02:27:46;;;;;;;19.20;12.65;;;;;;;5.62;68.16;100448.50;4996943;28;20058;-70
2022/11/07 02:30:19;;;;;;;22.25;11.57;;;;;;;5.32;68.62;100455.53;4997533;28;20061;-71
2022/11/07 02:32:46;;;;;;;16.45;11.98;;;;;;;5.51;68.49;100457.41;4995627;28;20058;-69
2022/11/07 02:35:31;;;;;;;18.98;11.32;;;;;;;5.44;68.40;100443.81;4997400;28;20515;-70
2022/11/07 02:37:58;;;;;;;16.67;11.35;;;;;;;5.69;67.85;100445.16;4997141;28;20062;-71
2022/11/07 02:40:25;;;;;;;20.95;11.20;;;;;;;5.67;67.85;100451.63;4996069;28;20051;-72
2022/11/07 02:42:53;;;;;;;17.48;10.55;;;;;;;5.43;68.53;100447.47;4997090;28;20050;-71
2022/11/07 02:45:33;;;;;;;18.98;11.48;;;;;;;5.47;68.28;100448.03;4995224;28;20055;-71
2022/11/07 02:47:59;;;;;;;16.63;10.80;;;;;;;5.39;68.74;100442.53;4995760;28;20119;-71
2022/11/07 02:50:26;;;;;;;18.50;11.25;;;;;;;5.48;68.59;100447.03;4996558;28;20057;-71
2022/11/07 02:52:52;;;;;;;18.52;11.07;;;;;;;5.65;68.13;100451.72;4996174;28;20049;-72
2022/11/07 02:55:19;;;;;;;23.58;12.95;;;;;;;5.77;67.89;100442.69;4996490;28;20053;-70
2022/11/07 02:57:45;;;;;;;16.60;10.57;;;;;;;5.59;68.13;100457.59;4996499;28;20026;-69
2022/11/07 03:00:13;;;;;;;17.38;11.05;;;;;;;5.51;68.46;100452.09;4995694;28;20038;-69
2022/11/07 03:02:45;;;;;;;16.13;10.07;;;;;;;5.60;68.32;100461.13;4997307;28;20027;-71
2022/11/07 03:05:14;;;;;;;17.45;10.38;;;;;;;5.55;68.62;100458.84;4995936;28;20061;-71
2022/11/07 03:07:42;;;;;;;15.05;10.45;;;;;;;5.77;68.01;100457.81;4994094;28;20060;-71
2022/11/07 03:10:10;;;;;;;16.13;10.40;;;;;;;5.89;67.53;100447.88;4992016;28;20506;-68
2022/11/07 03:12:37;;;;;;;17.40;10.45;;;;;;;5.58;68.04;100455.91;4992759;28;20140;-72
2022/11/07 03:15:05;;;;;;;25.55;11.15;;;;;;;5.61;68.28;100463.63;4992424;28;20069;-70
2022/11/07 03:17:31;;;;;;;18.35;10.93;;;;;;;5.79;67.83;100465.66;4991268;28;20097;-71
2022/11/07 03:19:58;;;;;;;14.45;10.88;;;;;;;5.64;67.90;100468.69;4991691;28;20106;-71
2022/11/07 03:22:25;;;;;;;17.77;11.30;;;;;;;5.71;67.86;100464.50;4990569;28;20055;-71
2022/11/07 03:24:51;;;;;;;18.48;10.88;;;;;;;5.68;68.33;100466.59;4991236;28;20061;-72
2022/11/07 03:27:18;;;;;;;16.67;11.52;;;;;;;5.79;67.79;100469.16;4990463;28;20396;-71
2022/11/07 03:29:45;;;;;;;14.60;10.00;;;;;;;5.79;67.73;100477.13;4992037;28;20054;-71
2022/11/07 03:32:11;;;;;;;17.25;10.57;;;;;;;5.84;67.36;100487.41;4992317;28;20061;-71
2022/11/07 03:34:38;;;;;;;20.67;9.60;;;;;;;5.99;67.18;100481.53;4993664;28;20050;-72
2022/11/07 03:37:04;;;;;;;19.23;10.35;;;;;;;5.85;67.53;100489.06;4993990;28;20110;-71
2022/11/07 03:39:30;;;;;;;14.50;9.07;;;;;;;5.92;67.40;100498.19;4993621;28;20536;-70
2022/11/07 03:41:57;;;;;;;14.05;9.68;;;;;;;5.97;67.11;100496.78;4994067;28;20050;-71
2022/11/07 03:44:24;;;;;;;15.80;9.85;;;;;;;5.97;66.98;100498.63;4991943;28;20051;-70
2022/11/07 03:46:50;;;;;;;13.52;10.20;;;;;;;5.85;67.46;100502.38;4990746;28;20057;-71
2022/11/07 03:49:17;;;;;;;13.35;9.88;;;;;;;5.89;67.50;100503.78;4992507;28;20038;-71
2022/11/07 03:51:44;;;;;;;14.40;9.88;;;;;;;5.95;67.10;100503.25;4993948;28;20463;-69
2022/11/07 03:54:11;;;;;;;16.23;10.20;;;;;;;6.21;66.64;100492.94;4995450;28;20050;-71
2022/11/07 03:56:37;;;;;;;15.85;10.15;;;;;;;5.88;67.55;100497.63;4991027;28;20047;-71
2022/11/07 03:59:03;;;;;;;19.10;10.95;;;;;;;5.93;67.23;100505.19;4993221;28;20042;-71
2022/11/07 04:01:30;;;;;;;15.80;10.50;;;;;;;5.98;67.36;100497.66;4993582;28;20042;-71
2022/11/07 04:03:57;;;;;;;16.08;9.68;;;;;;;5.93;67.53;100500.72;4994450;28;20125;-71
2022/11/07 04:06:23;;;;;;;14.60;9.77;;;;;;;6.02;67.12;100501.72;4992730;28;20057;-71
2022/11/07 04:08:49;;;;;;;12.93;9.30;;;;;;;5.99;67.06;100508.16;4991255;28;20070;-71
2022/11/07 04:19:31;;;;;;;14.88;9.70;;;;;;;6.12;66.63;100499.94;4992289;28;20139;-71
2022/11/07 04:21:58;;;;;;;14.77;9.93;;;;;;;6.06;66.83;100511.13;4991641;28;20039;-71
2022/11/07 04:24:24;;;;;;;16.42;10.70;;;;;;;5.91;67.35;100509.84;4990918;28;20054;-71
2022/11/07 04:29:35;;;;;;;14.10;9.18;;;;;;;6.13;66.81;100506.09;4989664;28;20058;-71
2022/11/07 04:32:02;;;;;;;12.88;9.40;;;;;;;6.05;66.85;100508.63;4989739;28;20053;-71
2022/11/07 04:34:28;;;;;;;17.65;10.27;;;;;;;5.99;66.84;100510.81;4990280;28;20057;-71
2022/11/07 04:36:55;;;;;;;14.68;9.82;;;;;;;6.05;66.97;100513.94;4992277;28;20050;-71
2022/11/07 04:39:21;;;;;;;15.98;9.82;;;;;;;5.97;67.33;100522.59;4990606;28;20056;-71
2022/11/07 04:41:48;;;;;;;16.83;9.65;;;;;;;6.11;66.55;100519.53;4992411;28;20047;-71
2022/11/07 04:44:14;;;;;;;15.18;9.55;;;;;;;6.23;66.12;100513.13;4993742;28;20057;-71
2022/11/07 04:46:41;;;;;;;13.30;9.32;;;;;;;6.22;66.29;100516.78;4992433;28;20051;-71
2022/11/07 04:49:07;;;;;;;14.23;9.90;;;;;;;6.02;66.44;100525.69;4991888;28;20047;-71
2022/11/07 04:51:40;;;;;;;13.27;9.48;;;;;;;5.98;66.82;100524.28;4988733;28;20055;-71
2022/11/07 04:54:11;;;;;;;13.27;9.57;;;;;;;6.18;66.46;100534.03;4992740;28;20106;-71
2022/11/07 04:56:38;;;;;;;15.27;9.55;;;;;;;6.13;66.39;100535.41;4991138;28;20057;-71
2022/11/07 04:59:04;;;;;;;12.10;8.70;;;;;;;6.27;66.05;100539.53;4990546;28;20050;-71
2022/11/07 05:01:31;;;;;;;15.40;8.82;;;;;;;6.02;66.83;100541.69;4989865;28;20553;-71
2022/11/07 05:03:57;;;;;;;15.02;9.32;;;;;;;6.00;66.79;100539.13;4987394;28;20518;-71
2022/11/07 05:06:24;;;;;;;12.77;9.15;;;;;;;6.23;66.33;100542.44;4987913;28;20054;-71
2022/11/07 05:08:50;;;;;;;14.20;8.82;;;;;;;6.44;65.56;100542.38;4989808;28;20057;-71
2022/11/07 05:11:17;;;;;;;14.40;9.10;;;;;;;6.15;66.30;100549.44;4990349;28;20054;-71
2022/11/07 05:13:43;;;;;;;15.95;8.95;;;;;;;6.29;65.63;100543.75;4990701;28;20051;-71
2022/11/07 05:16:18;;;;;;;13.43;9.00;;;;;;;6.13;66.20;100543.38;4987524;28;20435;-71
2022/11/07 05:18:44;;;;;;;12.25;8.93;;;;;;;6.14;66.12;100540.56;4988852;28;20562;-71
2022/11/07 05:21:11;;;;;;;13.77;8.57;;;;;;;6.15;66.22;100547.63;4989937;28;20057;-71
2022/11/07 05:23:37;;;;;;;14.60;8.85;;;;;;;6.28;65.70;100551.88;4991157;28;20577;-71
2022/11/07 05:26:04;;;;;;;10.75;8.40;;;;;;;6.08;66.41;100549.13;4988121;28;20047;-71
2022/11/07 05:28:32;;;;;;;15.95;9.05;;;;;;;6.11;66.36;100548.84;4988259;28;20070;-71
2022/11/07 05:31:06;;;;;;;15.63;8.90;;;;;;;6.33;65.42;100549.66;4989481;28;20622;-71
2022/11/07 05:33:33;;;;;;;12.55;7.75;;;;;;;6.35;65.34;100545.00;4990051;28;20055;-71
2022/11/07 05:36:13;;;;;;;13.13;9.02;;;;;;;6.34;65.23;100554.84;4988785;28;20043;-71
2022/11/07 05:38:45;;;;;;;15.30;8.10;;;;;;;6.31;65.40;100556.94;4987861;28;20047;-71
2022/11/07 05:41:14;;;;;;;13.27;8.05;;;;;;;6.14;65.95;100555.72;4988623;28;20098;-71
2022/11/07 05:43:40;;;;;;;10.00;7.65;;;;;;;6.07;65.75;100555.41;4987059;28;20047;-71
2022/11/07 05:46:07;;;;;;;11.85;7.43;;;;;;;6.23;65.43;100552.25;4989000;28;20066;-71
2022/11/07 05:48:34;;;;;;;12.00;7.68;;;;;;;6.17;65.43;100566.94;4987567;28;20045;-71
2022/11/07 05:51:01;;;;;;;11.30;7.70;;;;;;;6.26;65.32;100570.66;4989010;28;20047;-71
2022/11/07 05:53:28;;;;;;;16.77;8.50;;;;;;;6.32;65.03;100563.94;4990669;28;20050;-71
2022/11/07 05:55:55;;;;;;;11.15;7.43;;;;;;;6.13;65.44;100567.38;4989233;28;20074;-71
2022/11/07 05:58:22;;;;;;;11.45;7.78;;;;;;;6.12;65.55;100569.19;4986926;28;20054;-71
2022/11/07 06:00:49;;;;;;;10.00;7.13;;;;;;;6.08;65.83;100567.78;4987629;28;20043;-71
2022/11/07 06:03:16;;;;;;;12.10;7.22;;;;;;;6.09;65.96;100579.28;4987585;28;20055;-71
2022/11/07 06:05:45;;;;;;;10.32;7.70;;;;;;;6.17;65.05;100576.75;4988990;28;20054;-71
2022/11/07 06:08:12;;;;;;;11.00;7.13;;;;;;;6.15;65.52;100573.41;4988117;28;20051;-71
2022/11/07 06:10:40;;;;;;;14.52;6.80;;;;;;;6.16;65.40;100586.59;4988263;28;20057;-71
2022/11/07 06:13:11;;;;;;;21.00;7.60;;;;;;;6.37;64.71;100583.03;4989225;28;20031;-71
2022/11/07 06:15:40;;;;;;;9.25;5.97;;;;;;;6.27;64.89;100593.66;4989967;28;20069;-71
2022/11/07 06:18:14;;;;;;;10.35;6.45;;;;;;;6.40;64.50;100594.25;4991004;28;20050;-71
2022/11/07 06:20:41;;;;;;;8.60;6.53;;;;;;;6.29;65.05;100601.50;4988836;28;20047;-71
2022/11/07 06:23:08;;;;;;;11.30;6.90;;;;;;;6.18;65.07;100591.75;4991383;28;20054;-71
2022/11/07 06:25:35;;;;;;;8.18;6.15;;;;;;;6.02;65.49;100605.59;4989342;28;20050;-71
2022/11/07 06:28:06;;;;;;;11.32;6.32;;;;;;;6.10;65.37;100602.25;4988461;28;20057;-72
2022/11/07 06:38:39;;;;;;;13.55;6.13;;;;;;;6.25;65.27;100598.22;5700449;23;20305;-74
2022/11/07 07:37:07;;;;;;;9.75;5.55;;;;;;;6.77;64.00;100632.75;6052868;23;20280;31
2022/11/07 07:45:05;;;;;;;6.85;4.55;;;;;;;6.70;64.76;100622.69;5905404;23;19922;-73
2022/11/07 08:40:17;;;;;;;9.17;4.13;;;;;;;8.35;61.22;100638.47;4937703;28;20044;-72
2022/11/07 08:48:00;;;;;;;6.43;4.03;;;;;;;8.28;61.20;100648.06;5517718;23;20076;-72
2022/11/07 08:50:27;;;;;;;8.63;4.30;;;;;;;8.44;61.13;100646.63;5034449;28;20040;-71
2022/11/07 08:52:53;;;;;;;6.68;3.53;;;;;;;8.42;61.36;100649.44;5055412;23;20095;-70
2022/11/07 08:55:28;;;;;;;10.45;3.55;;;;;;;8.42;61.27;100654.78;4996484;28;20037;-71
2022/11/07 08:58:03;;;;;;;6.10;3.20;;;;;;;8.65;60.72;100647.22;4995878;28;20046;-70
2022/11/07 09:03:12;;;;;;;4.03;2.60;;;;;;;9.29;59.24;100640.84;5599032;23;20051;-72
2022/11/07 09:05:59;;;;;;;5.07;3.03;;;;;;;9.25;58.81;100646.69;5728433;23;20245;-71
2022/11/07 09:08:51;;;;;;;7.15;2.92;;;;;;;9.13;58.99;100637.16;5242681;23;20052;31
2022/11/07 09:11:18;;;;;;;11.27;3.05;;;;;;;8.87;59.98;100650.44;4955803;28;20036;-73
2022/11/07 09:13:48;;;;;;;6.07;2.97;;;;;;;9.06;59.07;100651.16;5350673;23;1099802;-71
2022/11/07 09:21:37;;;;;;;5.88;2.13;;;;;;;9.89;56.88;100644.66;5863987;23;20118;-71
2022/11/07 09:24:05;;;;;;;4.90;2.65;;;;;;;9.55;57.58;100656.16;5014561;28;20037;-73
2022/11/07 09:29:06;;;;;;;12.85;2.92;;;;;;;10.20;56.43;100653.03;5500426;23;20087;-72
2022/11/07 09:31:33;;;;;;;9.32;2.28;;;;;;;10.96;54.20;100653.06;5013095;28;20086;-72
2022/11/07 09:33:59;;;;;;;9.43;2.20;;;;;;;10.48;54.82;100656.38;5013580;28;20037;-72
2022/11/07 09:44:56;;;;;;;5.15;2.13;;;;;;;12.23;50.25;100661.59;5221248;23;20039;-73
2022/11/07 09:47:23;;;;;;;5.45;2.38;;;;;;;12.26;50.34;100658.56;4998245;28;20035;-73
2022/11/07 09:52:37;;;;;;;6.13;2.15;;;;;;;12.86;49.16;100661.53;5211128;23;20233;-70
2022/11/07 09:55:29;;;;;;;8.52;1.90;;;;;;;12.91;48.55;100663.69;4997766;28;20110;-70
2022/11/07 09:58:02;;;;;;;12.10;1.90;;;;;;;13.44;47.32;100661.16;4999192;28;20064;-70
2022/11/07 10:00:31;;;;;;;4.90;1.80;;;;;;;12.90;47.90;100671.94;4998083;28;20053;-72
2022/11/07 10:03:00;;;;;;;6.72;2.08;;;;;;;13.21;47.90;100656.59;4997899;28;20030;-73
2022/11/07 10:05:49;;;;;;;7.60;2.13;;;;;;;13.72;46.52;100664.94;5265886;23;20026;-70
2022/11/07 10:11:31;;;;;;;5.07;1.85;;;;;;;13.97;46.02;100654.78;5461474;23;20050;-73
2022/11/07 10:14:10;;;;;;;4.25;2.25;;;;;;;14.07;45.67;100659.91;4997457;28;20041;-71
2022/11/07 10:16:49;;;;;;;6.60;2.08;;;;;;;14.35;46.54;100659.28;4982108;28;20051;-75
2022/11/07 10:19:27;;;;;;;4.00;2.15;;;;;;;14.61;46.31;100651.53;4974576;28;20077;-75
2022/11/07 10:22:39;;;;;;;4.88;1.80;;;;;;;13.94;46.77;100648.94;4974500;28;20123;-76
2022/11/07 10:25:33;;;;;;;10.27;2.13;;;;;;;14.28;46.93;100659.19;4973605;28;20058;-74
2022/11/07 10:28:06;;;;;;;1.77;1.38;;;;;;;14.39;47.19;100657.88;4974110;28;20047;-72
2022/11/07 10:30:33;;;;;;;3.22;1.70;;;;;;;14.13;47.81;100648.41;4973042;28;20047;-74
2022/11/07 10:33:12;;;;;;;3.83;1.80;;;;;;;13.79;47.68;100660.53;4973093;28;20046;-73
2022/11/07 10:35:45;;;;;;;5.40;1.90;;;;;;;13.81;47.82;100658.50;4973822;28;20054;-73
2022/11/07 10:38:21;;;;;;;6.43;2.10;;;;;;;14.95;46.35;100667.16;4973744;28;20521;-74
2022/11/07 10:40:50;;;;;;;4.50;1.65;;;;;;;14.78;45.10;100657.59;4973351;28;20043;-74
2022/11/07 10:43:36;;;;;;;5.88;1.83;;;;;;;14.90;45.54;100663.34;4973064;28;20055;-73
2022/11/07 10:46:16;;;;;;;6.25;1.98;;;;;;;15.07;45.05;100662.06;4972922;28;20047;-73
2022/11/07 10:49:00;;;;;;;6.68;2.03;;;;;;;14.98;44.98;100669.47;4972541;28;20047;-73
2022/11/07 10:51:40;;;;;;;6.78;1.77;;;;;;;13.86;47.21;100657.09;4972729;28;20054;-70
2022/11/07 10:54:27;;;;;;;12.05;2.25;;;;;;;13.76;47.37;100657.38;4972192;28;20054;-73
2022/11/07 10:57:10;;;;;;;5.00;1.70;;;;;;;13.95;47.34;100639.84;4977159;28;20042;-74
2022/11/07 10:59:54;;;;;;;8.02;1.60;;;;;;;13.90;47.64;100651.16;4973739;28;20054;-73
2022/11/07 11:02:39;;;;;;;7.22;2.28;;;;;;;14.56;46.32;100653.13;4973925;28;20142;-72
2022/11/07 11:05:24;;;;;;;4.00;1.45;;;;;;;14.40;46.65;100654.19;4973417;28;20129;-73
2022/11/07 11:07:53;;;;;;;6.63;1.67;;;;;;;14.80;45.55;100654.69;4972749;28;20051;-71
2022/11/07 11:10:26;;;;;;;3.35;1.48;;;;;;;14.49;46.28;100658.44;4972541;28;20043;-74
2022/11/07 11:12:53;;;;;;;7.93;1.92;;;;;;;14.07;47.09;100651.84;4972612;28;20047;-72
2022/11/07 11:15:23;;;;;;;4.82;1.40;;;;;;;15.09;44.90;100654.63;4972628;28;20411;-72
2022/11/07 11:17:59;;;;;;;8.73;1.83;;;;;;;14.34;46.34;100647.66;4972840;28;20406;-73
2022/11/07 11:20:37;;;;;;;5.18;1.42;;;;;;;14.52;45.58;100648.09;4972054;28;20047;-73
2022/11/07 11:23:12;;;;;;;2.92;1.48;;;;;;;15.16;44.88;100650.13;4971582;28;20043;-74
2022/11/07 11:25:44;;;;;;;9.68;1.70;;;;;;;15.05;45.04;100650.63;4971916;28;20047;-73
2022/11/07 11:28:19;;;;;;;;;;;;;;;14.03;47.08;100647.84;4972848;28;20121;-72
2022/11/07 11:30:54;;;;;;;5.35;1.80;;;;;;;14.21;46.56;100651.00;4972692;28;19922;-73
2022/11/07 11:33:27;;;;;;;13.60;1.80;;;;;;;14.10;46.33;100646.06;4972202;28;20046;-72
2022/11/07 11:36:07;;;;;;;6.80;1.70;;;;;;;14.53;46.44;100643.53;4971674;28;20046;-72
2022/11/07 11:38:36;;;;;;;7.85;2.28;;;;;;;14.74;45.50;100640.94;4972627;28;20039;-72
2022/11/07 11:41:27;;;;;;;4.88;1.30;;;;;;;15.81;43.43;100641.97;4972009;28;20526;-72
2022/11/07 11:44:00;;;;;;;4.68;1.98;;;;;;;16.58;41.47;100647.28;4972506;28;20047;-72
2022/11/07 11:46:35;;;;;;;4.35;1.70;;;;;;;17.70;39.09;100642.31;4972154;28;20415;-73
2022/11/07 11:49:15;;;;;;;5.47;1.52;;;;;;;17.09;39.88;100651.38;4971878;28;20051;-72
2022/11/07 11:51:46;;;;;;;7.40;1.67;;;;;;;17.43;39.24;100652.31;4971578;28;20054;-73
2022/11/07 11:54:14;;;;;;;4.75;1.77;;;;;;;18.00;38.48;100638.13;4972309;28;20092;-73
2022/11/07 11:56:51;;;;;;;4.43;1.55;;;;;;;19.50;35.59;100644.16;4971322;28;20046;-73
2022/11/07 11:59:23;;;;;;;5.65;1.77;;;;;;;18.23;37.36;100634.13;4972153;28;20418;-72
2022/11/07 12:01:57;;;;;;;4.38;1.92;;;;;;;17.69;37.80;100632.53;4972294;28;20073;-73
2022/11/07 12:04:36;;;;;;;8.00;1.92;;;;;;;16.43;40.69;100639.25;4971769;28;20414;-73
2022/11/07 12:07:25;;;;;;;5.95;1.90;;;;;;;15.79;42.47;100634.06;4971625;28;20483;-71
2022/11/07 12:10:08;;;;;;;10.52;1.90;;;;;;;15.55;43.74;100624.50;4961047;28;20491;-72
2022/11/07 12:12:46;;;;;;;6.90;1.58;;;;;;;14.57;45.02;100628.66;4970785;28;20111;-72
2022/11/07 12:15:20;;;;;;;7.13;2.00;;;;;;;14.60;45.41;100628.28;4971480;28;20487;-74
2022/11/07 12:18:14;;;;;;;6.93;1.98;;;;;;;15.07;44.09;100628.81;4971247;28;20038;-72
2022/11/07 12:20:55;;;;;;;5.88;1.80;;;;;;;15.13;44.44;100633.47;4971237;28;20050;-73
2022/11/07 12:23:38;;;;;;;6.90;2.08;;;;;;;14.69;45.02;100629.00;4971078;28;20050;-73
2022/11/07 12:26:10;;;;;;;8.68;2.08;;;;;;;14.26;46.37;100632.41;4970886;28;20047;-71
2022/11/07 12:28:58;;;;;;;6.43;1.90;;;;;;;14.39;46.23;100631.75;4971107;28;20050;-72
2022/11/07 12:31:57;;;;;;;5.13;1.77;;;;;;;14.80;45.53;100627.69;4970412;28;20122;-73
2022/11/07 12:34:34;;;;;;;8.60;2.80;;;;;;;14.37;45.99;100622.16;4970834;28;20062;-73
2022/11/07 12:37:21;;;;;;;8.80;2.63;;;;;;;15.23;44.56;100631.28;4971340;28;20047;-71
2022/11/07 12:40:15;;;;;;;10.93;4.00;;;;;;;15.94;42.75;100639.38;4971155;28;20046;-72
2022/11/07 12:43:30;;;;;;;3.85;1.45;;;;;;;16.53;41.45;100636.19;4970852;28;20043;-72
2022/11/07 12:46:21;;;;;;;5.32;1.92;;;;;;;15.54;42.84;100636.34;4966276;28;20050;-72
2022/11/07 12:49:03;;;;;;;7.50;1.87;;;;;;;15.32;44.28;100637.38;4970185;28;20039;-73
2022/11/07 12:51:47;;;;;;;8.75;2.28;;;;;;;14.64;45.73;100639.53;4970691;28;20293;-73
2022/11/07 12:54:32;;;;;;;7.88;1.98;;;;;;;13.52;47.14;100640.34;4981589;28;20053;-71
2022/11/07 12:57:04;;;;;;;11.15;2.40;;;;;;;12.80;48.98;100640.72;4991461;28;20027;-71
2022/11/07 12:59:31;;;;;;;7.15;1.92;;;;;;;12.68;49.66;100625.94;4992036;28;20057;-71
2022/11/07 13:02:24;;;;;;;9.95;2.40;;;;;;;12.46;50.26;100637.50;4994659;28;20055;-71
2022/11/07 13:04:57;;;;;;;6.20;1.70;;;;;;;12.54;50.18;100638.28;4992314;28;20055;-71
2022/11/07 13:07:40;;;;;;;10.40;2.03;;;;;;;12.56;50.41;100633.56;4992866;28;20054;-70
2022/11/07 13:10:15;;;;;;;11.25;2.05;;;;;;;12.62;50.37;100635.53;4992883;28;20031;-70
2022/11/07 13:13:16;;;;;;;4.88;1.70;;;;;;;12.22;51.33;100644.63;4993279;28;20057;-72
2022/11/07 13:15:43;;;;;;;7.78;1.85;;;;;;;12.06;51.74;100648.19;4992985;28;20079;-72
2022/11/07 13:18:29;;;;;;;10.18;2.30;;;;;;;12.14;51.93;100640.13;4993372;28;20058;-71
2022/11/07 13:21:04;;;;;;;5.95;1.70;;;;;;;11.97;52.40;100634.94;4994810;28;20043;-70
2022/11/07 13:23:31;;;;;;;7.88;2.05;;;;;;;12.04;52.13;100639.47;4995231;28;20046;-72
2022/11/07 13:25:59;;;;;;;7.32;2.05;;;;;;;11.96;52.53;100630.56;4995721;28;20486;-72
2022/11/07 13:28:42;;;;;;;6.60;2.20;;;;;;;12.25;51.87;100646.13;4994769;28;20042;-71
2022/11/07 13:31:35;;;;;;;7.93;1.83;;;;;;;12.29;52.01;100639.41;4993872;28;20051;-71
2022/11/07 13:34:28;;;;;;;12.73;1.98;;;;;;;12.03;52.76;100642.31;4994158;28;20049;-71
2022/11/07 13:37:03;;;;;;;4.88;1.63;;;;;;;11.83;53.24;100647.22;4994140;28;20046;-71
2022/11/07 13:39:30;;;;;;;10.30;1.95;;;;;;;11.87;53.50;100640.50;4995374;28;20035;-71
2022/11/07 13:41:59;;;;;;;11.43;2.10;;;;;;;11.96;53.34;100644.00;4994673;28;20394;-71
2022/11/07 13:44:30;;;;;;;9.95;2.30;;;;;;;11.67;54.00;100637.34;4993870;28;20046;-71
2022/11/07 13:47:04;;;;;;;7.15;1.52;;;;;;;11.60;54.39;100650.59;4993290;28;20042;-71
2022/11/07 13:49:39;;;;;;;8.38;2.03;;;;;;;11.84;53.71;100652.44;4995509;28;20057;-71
2022/11/07 13:52:34;;;;;;;6.50;1.80;;;;;;;11.87;54.02;100648.56;4994786;28;20051;-70
2022/11/07 13:55:27;;;;;;;7.40;1.60;;;;;;;11.99;53.79;100646.34;4997519;28;20053;-71
2022/11/07 13:58:08;;;;;;;9.80;2.45;;;;;;;11.55;55.22;100646.72;4992479;28;20053;-72
2022/11/07 14:00:36;;;;;;;16.98;2.30;;;;;;;11.72;54.98;100650.25;4994673;28;20049;-71
2022/11/07 14:03:02;;;;;;;9.82;2.30;;;;;;;11.51;55.57;100648.88;4994136;28;20129;-71
2022/11/07 14:05:36;;;;;;;9.18;1.95;;;;;;;11.65;55.28;100645.53;4996265;28;20043;-71
2022/11/07 14:08:16;;;;;;;8.73;2.03;;;;;;;11.56;55.46;100635.81;4995700;28;20069;-71
2022/11/07 14:10:47;;;;;;;8.70;2.47;;;;;;;11.41;55.92;100642.84;4995898;28;20041;-71
2022/11/07 14:13:26;;;;;;;8.30;2.20;;;;;;;11.65;55.68;100639.31;4996311;28;20062;-71
2022/11/07 14:15:55;;;;;;;8.93;1.92;;;;;;;11.75;55.08;100640.00;4995320;28;20059;-71
2022/11/07 14:18:25;;;;;;;11.13;2.00;;;;;;;11.33;56.49;100634.78;4995862;28;20051;-71
2022/11/07 14:20:55;;;;;;;13.25;2.42;;;;;;;11.63;55.87;100641.34;4995766;28;20047;-71
2022/11/07 14:23:31;;;;;;;9.95;1.90;;;;;;;11.56;56.08;100640.34;4996108;28;20058;-71
2022/11/07 14:26:21;;;;;;;8.30;2.00;;;;;;;11.45;56.45;100634.31;4996316;28;20126;-71
2022/11/07 14:28:48;;;;;;;10.43;2.05;;;;;;;11.56;56.19;100638.50;4993438;28;20035;-71
2022/11/07 14:31:30;;;;;;;12.10;2.67;;;;;;;11.52;56.27;100634.47;4995729;28;20103;-71
2022/11/07 14:34:19;;;;;;;7.50;1.95;;;;;;;11.37;56.64;100636.13;4995742;28;20055;-71
2022/11/07 14:36:50;;;;;;;6.07;1.98;;;;;;;11.16;57.16;100634.78;4995991;28;20027;-71
2022/11/07 14:39:19;;;;;;;9.82;2.03;;;;;;;11.16;57.23;100621.34;4995817;28;20047;-71
2022/11/07 14:41:46;;;;;;;10.00;2.15;;;;;;;11.22;57.03;100622.53;4995758;28;20034;-71
2022/11/07 14:44:16;;;;;;;10.10;2.33;;;;;;;11.22;57.20;100623.38;4992062;28;20050;-71